Portada
METAR-TAF:

METAR-TAF

Aeroports :

Saint-Louis, Senegal

latitud: 16-03N, longitud: 016-27W, altitud: 4 m

Observació

L'informe es va fer fa 56 minuts, a les 10:00 UTC
Vent 10 kt del Nord
Temperatura 23°C
Humitat 73%
Pressió 1013 hPa
Visibilitat 10 km o més
sense núvols per sota de 1500 mi sense presència de cumulonimbus.

METAR: GOSS 221000Z 36010KT CAVOK 23/18 Q1013

Hora: 10:56 (10:56 UTC)

Pronòstic

L'informe es va fer fa 5 hores i 26 minuts, a les 05:30 UTC
Pronòstic vàlid del 22 a les 06 UTC al 23 a les 06 UTC
Vent 6 kt del Nord
Visibilitat: 8000 m

TAF: GOSS 220530Z 2206/2306 36006KT 8000 NSC

Observacions i pronòstics meteorològics de més de 4000 aeroports (METAR i TAF).

Les estacions disponibles són els punts grocs i vermells al mapa.

Posi el ratolí al punt desitjat per veure el nom de l'estació.

Feu clic per veure les observacions i els pronòstics meteorològics.

Per canviar el mapa: feu clic els botons verds amb una creu de color negre per apropar; al botó verd amb un guió per allunyar la imatge; o en les fletxes verdes per a mapes adjacents.


METAR-TAF: